Airfield :
LOGIN :

Register | Disclaimer

   EN    FR    IT 

 










Legend :    VFR   Marginal VFR   IFR   Intensive IFR   Very Intensive IFR
Visi :
Ceiling :
>= 8 km
>= 3000ft
5 to 8 km
1000 to 3000 ft
1500m to 5 km
500 to 1000 ft
800 to 1500m
200 to 500 ft
< 800m
< 200 ft
Symbols :   Thunderstorms  Fog  Heavy snow  Heavy precipitations  Wind > 20 kt
SIGMETs :     Misc.  Thunderstorms  Icing  Turbulence  Mountain Waves  Volcanic Ashes






- Airport Elevation : 1682 ft
- IATA code : VIT


LEVT - Vitoria Gasteiz

CURRENT METAR :
  • 261100Z 00000KT 0400 R04/0250N R22/0275N FZFG VV001 M01/M01 Q1032

EXPIRED METARs :
  • 261030Z 00000KT 0400 R04/0250N R22/0250N FZFG VV001 M02/M02 Q1032
  • 261000Z VRB01KT 0300 R04/0300N R22/0225N FZFG VV001 M03/M03 Q1032
  • 260930Z VRB02KT 0300 R04/0300N R22/0225N FZFG VV001 M03/M03 Q1032
  • 260900Z VRB02KT 0300 R04/0300N R22/0250N FZFG VV001 M04/M04 Q1032

TAF TAF LEVT
Valid from the 26 at 12:00 until the 27 at 12:00 UTC


261100Z 2612/2712 VRB05KT 4000 BR BCFG FEW003 TX08/2615Z TNM04/2706Z
PROB30
TEMPO 2612/2613 1500 BCFG BKN002
BECMG 2612/2614 CAVOK
PROB40
TEMPO 2700/2709 3000 BR BCFG
PROB30
TEMPO 2704/2709 0800 FZFG BKN001



MET'MAP, your aeronautical weather chart ! - Copyright ORBIFLY December 2007 - Disclaimer

ORBIFLY MET'MAP TEAM :

Programming & Development : Alexandra Zaïnal
Original concept : Baudouin d'Aumeries
Technical & hardware support : Manuel Goepfert
Assistance : Marc-Olivier Méhu

Contact : metmap@orbifly.com




SOURCES & CREDITS :

   NOAA